createdAt,value
2022-10-08T00:00:55.039Z,76.21
2022-10-08T00:01:55.104Z,77.03
2022-10-08T00:02:55.051Z,76.92
2022-10-08T00:03:55.075Z,77.03
2022-10-08T00:04:55.001Z,76.82
2022-10-08T00:05:55.004Z,76.72
2022-10-08T00:06:55.018Z,76.62
2022-10-08T00:07:54.987Z,76.82
2022-10-08T00:08:54.975Z,77.03
2022-10-08T00:09:54.947Z,76.21
2022-10-08T00:10:54.955Z,76.42
2022-10-08T00:11:54.944Z,76.72
2022-10-08T00:12:54.993Z,77.23
2022-10-08T00:13:54.907Z,77.13
2022-10-08T00:14:54.891Z,76.92
2022-10-08T00:15:54.937Z,77.13
2022-10-08T00:16:54.897Z,77.23
2022-10-08T00:17:54.909Z,77.13
2022-10-08T00:18:54.854Z,77.13
2022-10-08T00:19:54.864Z,77.13
2022-10-08T00:20:54.823Z,77.13
2022-10-08T00:21:54.810Z,77.03
2022-10-08T00:22:54.849Z,77.33
2022-10-08T00:23:54.800Z,77.33
2022-10-08T00:24:54.788Z,77.13
2022-10-08T00:25:54.778Z,77.33
2022-10-08T00:26:54.756Z,77.23
2022-10-08T00:27:54.748Z,77.23
2022-10-08T00:28:54.781Z,77.03
2022-10-08T00:29:54.730Z,76.92
2022-10-08T00:30:54.721Z,77.53
2022-10-08T00:31:55.538Z,77.44
2022-10-08T00:32:59.700Z,77.53
2022-10-08T00:33:54.737Z,77.64
2022-10-08T00:34:54.711Z,77.33
2022-10-08T00:35:54.656Z,77.74
2022-10-08T00:36:54.655Z,77.84
2022-10-08T00:37:54.653Z,77.74
2022-10-08T00:38:54.631Z,77.84
2022-10-08T00:39:54.631Z,77.64
2022-10-08T00:40:54.633Z,78.08
2022-10-08T00:41:54.623Z,77.84
2022-10-08T00:42:54.588Z,78.15
2022-10-08T00:43:54.577Z,77.84
2022-10-08T00:44:54.708Z,77.98
2022-10-08T00:45:54.587Z,77.87
2022-10-08T00:46:54.547Z,77.78
2022-10-08T00:47:54.542Z,78.39
2022-10-08T00:48:54.515Z,78.28
2022-10-08T00:49:54.529Z,78.69
2022-10-08T00:50:54.546Z,78.49
2022-10-08T00:51:54.484Z,78.89
2022-10-08T00:52:54.478Z,78.80
2022-10-08T00:53:54.468Z,78.49
2022-10-08T00:54:54.458Z,78.69
2022-10-08T00:55:54.480Z,78.83
2022-10-08T00:56:54.432Z,79.03
2022-10-08T00:57:54.425Z,79.85
2022-10-08T00:58:54.415Z,79.58
2022-10-08T00:59:54.397Z,80.19
2022-10-08T01:00:54.430Z,80.80
2022-10-08T01:01:54.428Z,80.40
2022-10-08T01:02:54.382Z,80.40
2022-10-08T01:03:54.356Z,80.19
2022-10-08T01:04:54.349Z,80.19
2022-10-08T01:05:54.350Z,80.19
2022-10-08T01:06:54.363Z,80.40
2022-10-08T01:07:54.310Z,80.09
2022-10-08T01:08:54.300Z,80.80
2022-10-08T01:09:54.295Z,80.46
2022-10-08T01:10:54.286Z,80.29
2022-10-08T01:11:54.302Z,80.09
2022-10-08T01:12:54.257Z,80.05
2022-10-08T01:13:54.249Z,80.05
2022-10-08T01:14:54.239Z,80.16
2022-10-08T01:15:54.307Z,80.16
2022-10-08T01:16:54.241Z,80.40
2022-10-08T01:17:54.230Z,80.66
2022-10-08T01:18:54.224Z,80.60
2022-10-08T01:19:54.182Z,80.66
2022-10-08T01:20:54.172Z,80.56
2022-10-08T01:21:54.162Z,80.77
2022-10-08T01:22:54.186Z,80.56
2022-10-08T01:23:54.142Z,80.56
2022-10-08T01:24:54.125Z,80.16
2022-10-08T01:25:54.121Z,80.16
2022-10-08T01:26:54.102Z,80.46
2022-10-08T01:27:54.103Z,79.95
2022-10-08T01:28:54.111Z,80.26
2022-10-08T01:29:54.067Z,80.16
2022-10-08T01:30:54.058Z,80.46
2022-10-08T01:31:54.144Z,80.77
2022-10-08T01:32:54.076Z,80.66
2022-10-08T01:33:54.053Z,80.66
2022-10-08T01:34:54.013Z,80.97
2022-10-08T01:35:54.065Z,81.17
2022-10-08T01:36:53.992Z,81.17
2022-10-08T01:37:53.985Z,81.38
2022-10-08T01:38:54.004Z,82.23
2022-10-08T01:39:53.969Z,82.03
2022-10-08T01:40:53.960Z,81.62
2022-10-08T01:41:53.947Z,82.13
2022-10-08T01:42:53.938Z,82.98
2022-10-08T01:43:53.955Z,82.88
2022-10-08T01:44:53.905Z,82.68
2022-10-08T01:45:53.978Z,82.54
2022-10-08T01:46:53.893Z,82.84
2022-10-08T01:47:53.881Z,82.74
2022-10-08T01:48:53.946Z,82.74
2022-10-08T01:49:53.851Z,82.43
2022-10-08T01:50:53.840Z,82.13
2022-10-08T01:51:53.829Z,81.62
2022-10-08T01:52:53.824Z,81.62
2022-10-08T01:53:53.806Z,82.13
2022-10-08T01:54:53.831Z,82.68
2022-10-08T01:55:53.796Z,82.88
2022-10-08T01:56:53.776Z,82.84
2022-10-08T01:57:53.771Z,83.04
2022-10-08T01:58:53.759Z,83.04
2022-10-08T01:59:53.744Z,82.94
2022-10-08T02:00:53.789Z,82.64
2022-10-08T02:01:53.791Z,82.43
2022-10-08T02:02:53.719Z,82.50
2022-10-08T02:03:53.701Z,82.74
2022-10-08T02:04:53.715Z,82.54
2022-10-08T02:05:53.684Z,82.60
2022-10-08T02:06:53.689Z,82.29
2022-10-08T02:07:53.657Z,82.80
2022-10-08T02:08:53.649Z,82.09
2022-10-08T02:09:53.643Z,82.50
2022-10-08T02:10:53.623Z,82.74
2022-10-08T02:11:53.635Z,82.74
2022-10-08T02:12:53.663Z,82.43
2022-10-08T02:13:53.590Z,82.64
2022-10-08T02:14:53.587Z,82.84
2022-10-08T02:15:53.577Z,82.94
2022-10-08T02:16:53.587Z,82.84
2022-10-08T02:17:53.553Z,82.64
2022-10-08T02:18:53.553Z,82.94
2022-10-08T02:19:53.524Z,82.54
2022-10-08T02:20:53.533Z,82.64
2022-10-08T02:21:53.514Z,82.84
2022-10-08T02:22:53.493Z,82.64
2022-10-08T02:23:53.498Z,82.54
2022-10-08T02:24:53.479Z,83.04
2022-10-08T02:25:53.464Z,83.04
2022-10-08T02:26:53.451Z,82.94
2022-10-08T02:27:53.437Z,83.25
2022-10-08T02:28:53.449Z,83.15
2022-10-08T02:29:53.424Z,82.84
2022-10-08T02:30:53.417Z,83.25
2022-10-08T02:31:53.555Z,82.74
2022-10-08T02:32:53.389Z,82.94
2022-10-08T02:33:53.373Z,83.65
2022-10-08T02:34:53.403Z,83.90
2022-10-08T02:35:53.362Z,83.56
2022-10-08T02:36:53.356Z,83.49
2022-10-08T02:37:53.341Z,83.76
2022-10-08T02:38:53.317Z,83.90
2022-10-08T02:39:53.306Z,83.86
2022-10-08T02:40:53.313Z,83.96
2022-10-08T02:41:53.312Z,83.35
2022-10-08T02:42:53.289Z,83.51
2022-10-08T02:43:53.273Z,83.45
2022-10-08T02:44:53.279Z,83.65
2022-10-08T02:45:53.323Z,83.76
2022-10-08T02:46:53.245Z,82.94
2022-10-08T02:47:53.219Z,82.94
2022-10-08T02:48:53.206Z,83.45
2022-10-08T02:49:53.213Z,83.04
2022-10-08T02:50:53.185Z,83.65
2022-10-08T02:51:53.184Z,83.80
2022-10-08T02:52:53.209Z,83.90
2022-10-08T02:53:53.195Z,84.20
2022-10-08T02:54:53.153Z,84.72
2022-10-08T02:55:53.142Z,84.82
2022-10-08T02:56:53.144Z,84.72
2022-10-08T02:57:53.179Z,84.61
2022-10-08T02:58:53.111Z,84.72
2022-10-08T02:59:53.122Z,84.72
2022-10-08T03:00:53.111Z,84.82
2022-10-08T03:01:53.195Z,84.72
2022-10-08T03:02:53.149Z,84.72
2022-10-08T03:03:53.058Z,84.61
2022-10-08T03:04:53.046Z,84.82
2022-10-08T03:05:53.050Z,84.92
2022-10-08T03:06:53.022Z,84.72
2022-10-08T03:07:53.014Z,84.92
2022-10-08T03:08:53.015Z,84.82
2022-10-08T03:09:52.990Z,85.22
2022-10-08T03:10:52.987Z,85.13
2022-10-08T03:11:52.958Z,85.22
2022-10-08T03:12:52.960Z,84.92
2022-10-08T03:13:52.941Z,85.63
2022-10-08T03:14:52.933Z,85.33
2022-10-08T03:15:52.940Z,85.13
2022-10-08T03:16:52.977Z,85.13
2022-10-08T03:17:52.901Z,85.33
2022-10-08T03:18:52.884Z,85.22
2022-10-08T03:19:52.879Z,85.27
2022-10-08T03:20:52.866Z,85.53
2022-10-08T03:21:52.859Z,85.13
2022-10-08T03:22:52.843Z,86.29
2022-10-08T03:23:52.837Z,86.29
2022-10-08T03:24:56.677Z,85.94
2022-10-08T03:25:52.812Z,86.04
2022-10-08T03:26:52.815Z,86.18
2022-10-08T03:27:52.791Z,86.18
2022-10-08T03:28:52.781Z,86.08
2022-10-08T03:29:52.770Z,85.47
2022-10-08T03:30:52.783Z,86.65
2022-10-08T03:31:52.770Z,85.94
2022-10-08T03:32:52.749Z,86.59
2022-10-08T03:33:52.721Z,86.59
2022-10-08T03:34:52.720Z,86.69
2022-10-08T03:35:52.710Z,86.39
2022-10-08T03:36:52.688Z,86.80
2022-10-08T03:37:52.693Z,86.59
2022-10-08T03:38:52.667Z,86.55
2022-10-08T03:39:52.679Z,86.59
2022-10-08T03:40:52.776Z,87.00
2022-10-08T03:41:52.633Z,86.69
2022-10-08T03:42:52.639Z,86.90
2022-10-08T03:43:52.635Z,86.59
2022-10-08T03:44:52.606Z,86.80
2022-10-08T03:45:52.625Z,87.00
2022-10-08T03:46:52.591Z,86.49
2022-10-08T03:47:52.596Z,86.80
2022-10-08T03:48:52.562Z,86.59
2022-10-08T03:49:52.575Z,86.69
2022-10-08T03:50:52.541Z,86.69
2022-10-08T03:51:52.526Z,86.69
2022-10-08T03:52:52.520Z,87.20
2022-10-08T03:53:52.507Z,86.49
2022-10-08T03:54:52.502Z,86.69
2022-10-08T03:55:52.497Z,86.59
2022-10-08T03:56:52.499Z,87.30
2022-10-08T03:57:52.494Z,86.96
2022-10-08T03:58:52.450Z,86.55
2022-10-08T03:59:52.438Z,86.65
2022-10-08T04:00:52.425Z,86.49
2022-10-08T04:01:52.482Z,86.55
2022-10-08T04:02:52.504Z,86.18
2022-10-08T04:03:52.408Z,86.45
2022-10-08T04:04:52.387Z,86.04
2022-10-08T04:05:52.380Z,86.35
2022-10-08T04:06:52.376Z,86.15
2022-10-08T04:07:52.361Z,86.55
2022-10-08T04:08:52.352Z,86.24
2022-10-08T04:09:52.327Z,85.22
2022-10-08T04:10:52.338Z,85.22
2022-10-08T04:11:52.316Z,85.68
2022-10-08T04:12:52.321Z,85.57
2022-10-08T04:13:52.286Z,85.47
2022-10-08T04:14:52.274Z,86.45
2022-10-08T04:15:52.308Z,86.59
2022-10-08T04:16:52.274Z,86.04
2022-10-08T04:17:52.247Z,86.15
2022-10-08T04:18:52.262Z,86.15
2022-10-08T04:19:52.229Z,85.33
2022-10-08T04:20:52.237Z,86.35
2022-10-08T04:21:52.220Z,86.45
2022-10-08T04:22:52.188Z,85.74
2022-10-08T04:23:52.191Z,85.43
2022-10-08T04:24:52.166Z,85.13
2022-10-08T04:25:52.153Z,85.68
2022-10-08T04:26:59.250Z,85.47
2022-10-08T04:27:52.138Z,85.74
2022-10-08T04:28:52.246Z,85.47
2022-10-08T04:29:52.127Z,85.57
2022-10-08T04:30:52.145Z,85.68
2022-10-08T04:31:52.099Z,85.53
2022-10-08T04:32:52.108Z,85.13
2022-10-08T04:33:52.097Z,85.43
2022-10-08T04:34:52.071Z,85.74
2022-10-08T04:35:55.096Z,86.55
2022-10-08T04:36:53.037Z,86.45
2022-10-08T04:37:52.025Z,86.45
2022-10-08T04:38:52.029Z,86.55
2022-10-08T04:39:52.033Z,85.74
2022-10-08T04:40:52.001Z,85.53
2022-10-08T04:41:51.978Z,85.69
2022-10-08T04:42:51.985Z,85.08
2022-10-08T04:43:51.968Z,85.08
2022-10-08T04:44:51.979Z,85.08
2022-10-08T04:45:51.968Z,84.88
2022-10-08T04:46:51.938Z,84.67
2022-10-08T04:47:51.923Z,84.78
2022-10-08T04:48:51.911Z,84.78
2022-10-08T04:49:51.911Z,84.67
2022-10-08T04:50:51.885Z,83.96
2022-10-08T04:51:51.895Z,83.86
2022-10-08T04:52:51.873Z,83.76
2022-10-08T04:53:51.851Z,84.06
2022-10-08T04:54:51.854Z,83.65
2022-10-08T04:55:51.842Z,84.06
2022-10-08T04:56:51.863Z,83.65
2022-10-08T04:57:51.814Z,84.06
2022-10-08T04:58:51.797Z,83.96
2022-10-08T05:00:16.630Z,83.86
2022-10-08T05:00:52.794Z,83.45
2022-10-08T05:01:51.858Z,84.06
2022-10-08T05:02:52.020Z,84.06
2022-10-08T05:03:51.749Z,84.17
2022-10-08T05:04:51.738Z,83.86
2022-10-08T05:05:51.737Z,84.06
2022-10-08T05:06:51.720Z,83.90
2022-10-08T05:07:51.730Z,84.20
2022-10-08T05:08:51.728Z,84.20
2022-10-08T05:09:51.684Z,83.86
2022-10-08T05:10:51.683Z,83.86
2022-10-08T05:11:51.662Z,84.20
2022-10-08T05:12:51.651Z,84.00
2022-10-08T05:13:51.673Z,84.92
2022-10-08T05:14:51.638Z,84.82
2022-10-08T05:15:51.666Z,84.72
2022-10-08T05:16:51.720Z,84.72
2022-10-08T05:17:51.597Z,84.51
2022-10-08T05:18:51.581Z,84.82
2022-10-08T05:19:51.575Z,84.72
2022-10-08T05:20:51.555Z,84.72
2022-10-08T05:21:51.565Z,85.02
2022-10-08T05:22:51.546Z,84.82
2022-10-08T05:23:51.534Z,84.75
2022-10-08T05:24:51.515Z,84.92
2022-10-08T05:25:51.521Z,85.16
2022-10-08T05:26:58.523Z,85.16
2022-10-08T05:27:52.489Z,85.77
2022-10-08T05:28:51.493Z,85.68
2022-10-08T05:29:51.476Z,86.49
2022-10-08T05:30:51.483Z,86.39
2022-10-08T05:31:51.444Z,86.49
2022-10-08T05:32:51.501Z,86.49
2022-10-08T05:33:51.423Z,85.98
2022-10-08T05:34:51.430Z,86.18
2022-10-08T05:35:51.396Z,86.49
2022-10-08T05:36:51.395Z,85.98
2022-10-08T05:37:51.386Z,86.29
2022-10-08T05:38:51.372Z,86.18
2022-10-08T05:39:51.363Z,85.98
2022-10-08T05:40:51.374Z,86.39
2022-10-08T05:41:51.412Z,86.69
2022-10-08T05:42:51.333Z,86.39
2022-10-08T05:43:51.321Z,86.29
2022-10-08T05:44:51.295Z,86.18
2022-10-08T05:45:51.283Z,86.08
2022-10-08T05:46:51.396Z,85.98
2022-10-08T05:47:51.287Z,86.49
2022-10-08T05:48:51.274Z,86.49
2022-10-08T05:49:51.251Z,85.98
2022-10-08T05:50:51.249Z,86.24
2022-10-08T05:51:51.242Z,85.98
2022-10-08T05:52:51.219Z,86.49
2022-10-08T05:53:51.202Z,86.29
2022-10-08T05:54:51.198Z,86.39
2022-10-08T05:55:51.193Z,86.08
2022-10-08T05:56:51.190Z,86.18
2022-10-08T05:57:51.173Z,86.18
2022-10-08T05:58:51.188Z,86.45
2022-10-08T05:59:51.136Z,86.69
2022-10-08T06:00:51.124Z,86.65
2022-10-08T06:01:51.119Z,86.55
2022-10-08T06:02:51.484Z,86.49
2022-10-08T06:03:51.100Z,86.55
2022-10-08T06:04:51.192Z,86.45
2022-10-08T06:05:51.071Z,85.63
2022-10-08T06:06:51.077Z,85.53
2022-10-08T06:07:51.051Z,85.53
2022-10-08T06:08:51.071Z,85.33
2022-10-08T06:09:51.038Z,85.02
2022-10-08T06:10:51.026Z,85.22
2022-10-08T06:11:51.023Z,85.22
2022-10-08T06:12:50.995Z,85.13
2022-10-08T06:13:50.985Z,84.72
2022-10-08T06:14:51.009Z,84.98
2022-10-08T06:15:51.014Z,84.67
2022-10-08T06:16:50.957Z,84.72
2022-10-08T06:17:50.941Z,84.82
2022-10-08T06:18:50.939Z,85.13
2022-10-08T06:19:50.932Z,85.43
2022-10-08T06:20:51.157Z,85.22
2022-10-08T06:21:50.916Z,85.02
2022-10-08T06:22:50.995Z,85.43
2022-10-08T06:23:50.900Z,85.43
2022-10-08T06:24:51.616Z,85.02
2022-10-08T06:25:50.870Z,84.82
2022-10-08T06:26:50.850Z,84.92
2022-10-08T06:27:50.830Z,85.13
2022-10-08T06:28:50.870Z,84.47
2022-10-08T06:29:50.834Z,84.92
2022-10-08T06:30:50.799Z,84.58
2022-10-08T06:31:50.867Z,84.67
2022-10-08T06:32:50.781Z,84.67
2022-10-08T06:33:50.774Z,84.58
2022-10-08T06:34:50.775Z,85.08
2022-10-08T06:35:50.750Z,84.17
2022-10-08T06:36:50.757Z,84.27
2022-10-08T06:37:50.725Z,84.67
2022-10-08T06:38:50.728Z,85.19
2022-10-08T06:39:50.722Z,84.67
2022-10-08T06:40:50.710Z,84.67
2022-10-08T06:41:50.711Z,84.78
2022-10-08T06:42:50.676Z,84.58
2022-10-08T06:43:50.671Z,84.58
2022-10-08T06:44:50.652Z,84.06
2022-10-08T06:45:50.638Z,84.58
2022-10-08T06:46:50.719Z,85.08
2022-10-08T06:47:50.629Z,84.98
2022-10-08T06:48:50.601Z,84.58
2022-10-08T06:49:50.603Z,84.78
2022-10-08T06:50:50.612Z,84.78
2022-10-08T06:51:50.578Z,84.58
2022-10-08T06:52:50.596Z,85.13
2022-10-08T06:53:50.550Z,84.92
2022-10-08T06:54:50.543Z,85.43
2022-10-08T06:55:50.534Z,85.33
2022-10-08T06:56:50.532Z,85.33
2022-10-08T06:57:50.509Z,85.43
2022-10-08T06:58:50.507Z,85.39
2022-10-08T06:59:50.482Z,84.98
2022-10-08T07:00:50.518Z,85.08
2022-10-08T07:01:50.510Z,84.78
2022-10-08T07:02:50.602Z,84.84
2022-10-08T07:03:50.447Z,84.33
2022-10-08T07:04:50.439Z,83.98
2022-10-08T07:05:50.420Z,83.58
2022-10-08T07:06:50.450Z,83.78
2022-10-08T07:07:50.403Z,83.58
2022-10-08T07:08:50.410Z,83.58
2022-10-08T07:09:50.373Z,83.68
2022-10-08T07:10:50.375Z,83.17
2022-10-08T07:11:50.389Z,82.93
2022-10-08T07:12:51.032Z,82.73
2022-10-08T07:13:50.329Z,82.93
2022-10-08T07:14:50.347Z,82.42
2022-10-08T07:15:50.454Z,82.73
2022-10-08T07:16:50.369Z,81.71
2022-10-08T07:17:50.294Z,82.42
2022-10-08T07:18:50.308Z,82.87
2022-10-08T07:19:50.268Z,82.90
2022-10-08T07:20:50.280Z,82.60
2022-10-08T07:21:50.248Z,83.11
2022-10-08T07:22:50.576Z,83.21
2022-10-08T07:23:50.229Z,82.80
2022-10-08T07:24:50.242Z,83.07
2022-10-08T07:25:50.203Z,82.56
2022-10-08T07:26:50.193Z,83.27
2022-10-08T07:27:50.181Z,82.66
2022-10-08T07:28:50.159Z,83.07
2022-10-08T07:29:50.171Z,82.52
2022-10-08T07:30:50.148Z,82.73
2022-10-08T07:31:50.222Z,82.52
2022-10-08T07:32:50.310Z,82.68
2022-10-08T07:33:50.116Z,82.48
2022-10-08T07:34:50.097Z,81.87
2022-10-08T07:35:50.097Z,81.37
2022-10-08T07:36:50.094Z,81.37
2022-10-08T07:37:50.078Z,81.06
2022-10-08T07:38:50.063Z,81.16
2022-10-08T07:39:50.039Z,81.06
2022-10-08T07:40:50.117Z,80.92
2022-10-08T07:41:50.027Z,81.23
2022-10-08T07:42:50.246Z,80.45
2022-10-08T07:43:49.997Z,81.37
2022-10-08T07:44:49.984Z,81.16
2022-10-08T07:45:49.989Z,81.30
2022-10-08T07:46:49.975Z,81.26
2022-10-08T07:47:49.963Z,81.16
2022-10-08T07:48:49.957Z,81.16
2022-10-08T07:49:49.971Z,81.26
2022-10-08T07:50:49.928Z,81.26
2022-10-08T07:51:49.907Z,81.20
2022-10-08T07:52:50.288Z,81.46
2022-10-08T07:53:49.890Z,81.10
2022-10-08T07:54:49.877Z,81.46
2022-10-08T07:55:49.871Z,81.33
2022-10-08T07:56:49.869Z,80.00
2022-10-08T07:57:49.864Z,80.00
2022-10-08T07:58:49.855Z,80.27
2022-10-08T07:59:49.826Z,79.86
2022-10-08T08:00:49.844Z,78.85
2022-10-08T08:01:49.862Z,79.77
2022-10-08T08:02:50.129Z,78.51
2022-10-08T08:03:49.781Z,78.44
2022-10-08T08:04:49.766Z,78.95
2022-10-08T08:05:49.764Z,79.32
2022-10-08T08:06:49.749Z,78.20
2022-10-08T08:07:53.116Z,78.41
2022-10-08T08:08:49.731Z,77.80
2022-10-08T08:09:49.719Z,77.56
2022-10-08T08:10:49.699Z,77.70
2022-10-08T08:11:49.690Z,77.25
2022-10-08T08:12:50.081Z,77.86
2022-10-08T08:13:49.699Z,77.49
2022-10-08T08:14:49.671Z,77.25
2022-10-08T08:15:49.653Z,77.56
2022-10-08T08:16:49.737Z,76.81
2022-10-08T08:17:49.628Z,76.71
2022-10-08T08:18:49.625Z,76.31
2022-10-08T08:19:49.635Z,76.06
2022-10-08T08:20:49.591Z,75.46
2022-10-08T08:21:49.580Z,75.46
2022-10-08T08:22:49.962Z,75.62
2022-10-08T08:23:49.559Z,75.18
2022-10-08T08:24:49.579Z,75.08
2022-10-08T08:25:49.531Z,73.86
2022-10-08T08:26:50.804Z,73.12
2022-10-08T08:27:49.523Z,73.02
2022-10-08T08:28:49.564Z,73.12
2022-10-08T08:29:49.497Z,71.97
2022-10-08T08:30:49.504Z,71.00
2022-10-08T08:31:49.622Z,70.22
2022-10-08T08:32:49.804Z,68.71
2022-10-08T08:33:49.455Z,65.93
2022-10-08T08:35:04.870Z,61.05
2022-10-08T08:36:04.672Z,59.03
2022-10-08T08:36:49.422Z,56.29
2022-10-08T08:37:49.412Z,54.19
2022-10-08T08:38:49.403Z,52.81
2022-10-08T08:39:49.383Z,49.95
2022-10-08T08:40:49.381Z,49.66
2022-10-08T08:41:49.370Z,47.03
2022-10-08T08:42:49.701Z,46.86
2022-10-08T08:43:49.342Z,45.31
2022-10-08T08:44:49.350Z,43.02
2022-10-08T08:45:49.360Z,43.43
2022-10-08T08:46:49.330Z,44.07
2022-10-08T08:47:49.301Z,44.76
2022-10-08T08:48:49.291Z,43.55
2022-10-08T08:49:49.269Z,43.31
2022-10-08T08:50:49.275Z,42.82
2022-10-08T08:51:49.343Z,43.07
2022-10-08T08:52:49.820Z,42.26
2022-10-08T08:53:49.229Z,42.72
2022-10-08T08:54:49.243Z,44.73
2022-10-08T08:55:49.238Z,46.38
2022-10-08T08:56:49.212Z,47.52
2022-10-08T08:57:49.197Z,48.04
2022-10-08T08:58:49.187Z,49.28
2022-10-08T08:59:49.170Z,49.68
2022-10-08T09:00:49.193Z,48.41
2022-10-08T09:01:49.154Z,47.80
2022-10-08T09:02:49.554Z,48.46
2022-10-08T09:03:49.170Z,49.38
2022-10-08T09:04:49.122Z,49.63
2022-10-08T09:05:49.164Z,50.35
2022-10-08T09:06:49.092Z,52.04
2022-10-08T09:07:49.111Z,53.07
2022-10-08T09:08:49.103Z,54.29
2022-10-08T09:09:49.070Z,54.32
2022-10-08T09:10:49.060Z,55.20
2022-10-08T09:11:49.051Z,56.35
2022-10-08T09:12:49.644Z,56.78
2022-10-08T09:13:49.025Z,57.39
2022-10-08T09:14:49.038Z,57.76
2022-10-08T09:15:49.017Z,57.86
2022-10-08T09:16:49.127Z,57.66
2022-10-08T09:17:48.975Z,57.33
2022-10-08T09:18:48.966Z,57.35
2022-10-08T09:19:48.957Z,57.28
2022-10-08T09:20:48.979Z,58.62
2022-10-08T09:21:48.939Z,58.72
2022-10-08T09:22:49.413Z,59.34
2022-10-08T09:23:48.915Z,59.25
2022-10-08T09:24:48.908Z,59.12
2022-10-08T09:25:48.898Z,59.01
2022-10-08T09:26:48.887Z,59.55
2022-10-08T09:27:48.874Z,59.70
2022-10-08T09:28:48.903Z,60.94
2022-10-08T09:29:48.853Z,61.04
2022-10-08T09:30:48.883Z,61.54
2022-10-08T09:31:48.839Z,61.34
2022-10-08T09:32:49.168Z,61.24
2022-10-08T09:33:48.813Z,61.11
2022-10-08T09:34:48.797Z,61.41
2022-10-08T09:35:48.787Z,60.81
2022-10-08T09:36:48.764Z,60.81
2022-10-08T09:37:48.779Z,61.44
2022-10-08T09:38:48.753Z,61.90
2022-10-08T09:39:48.741Z,62.81
2022-10-08T09:40:48.732Z,63.42
2022-10-08T09:41:48.731Z,64.15
2022-10-08T09:42:49.016Z,63.54
2022-10-08T09:43:48.698Z,63.67
2022-10-08T09:44:48.684Z,64.28
2022-10-08T09:45:48.719Z,64.51
2022-10-08T09:46:48.678Z,64.92
2022-10-08T09:47:48.692Z,66.16
2022-10-08T09:48:48.653Z,65.95
2022-10-08T09:49:48.681Z,65.85
2022-10-08T09:50:48.623Z,65.55
2022-10-08T09:51:48.612Z,66.05
2022-10-08T09:52:49.228Z,65.75
2022-10-08T09:53:48.591Z,65.88
2022-10-08T09:54:48.571Z,66.89
2022-10-08T09:55:48.570Z,66.49
2022-10-08T09:56:48.556Z,67.43
2022-10-08T09:57:48.545Z,67.73
2022-10-08T09:58:48.542Z,68.17
2022-10-08T09:59:48.536Z,68.17
2022-10-08T10:00:48.509Z,68.17
2022-10-08T10:01:48.526Z,68.67
2022-10-08T10:02:48.961Z,68.87
2022-10-08T10:03:48.520Z,68.67
2022-10-08T10:04:48.490Z,68.64
2022-10-08T10:05:48.464Z,68.13
2022-10-08T10:06:48.449Z,68.44
2022-10-08T10:07:48.436Z,68.01
2022-10-08T10:08:48.445Z,67.80
2022-10-08T10:09:48.411Z,67.27
2022-10-08T10:10:48.405Z,67.10
2022-10-08T10:11:48.396Z,66.89
2022-10-08T10:12:48.832Z,66.69
2022-10-08T10:13:48.724Z,67.02
2022-10-08T10:14:48.363Z,67.19
2022-10-08T10:15:48.378Z,67.19
2022-10-08T10:16:48.391Z,67.10
2022-10-08T10:17:48.325Z,67.90
2022-10-08T10:18:48.316Z,67.23
2022-10-08T10:19:48.306Z,67.30
2022-10-08T10:20:48.320Z,67.23
2022-10-08T10:21:48.299Z,67.33
2022-10-08T10:22:48.592Z,67.19
2022-10-08T10:23:48.276Z,67.33
2022-10-08T10:24:48.270Z,68.13
2022-10-08T10:25:48.236Z,67.83
2022-10-08T10:26:48.232Z,68.17
2022-10-08T10:27:55.299Z,67.86
2022-10-08T10:28:48.278Z,68.47
2022-10-08T10:29:48.190Z,67.97
2022-10-08T10:30:48.213Z,68.07
2022-10-08T10:31:48.166Z,68.57
2022-10-08T10:32:48.534Z,68.37
2022-10-08T10:33:48.149Z,68.10
2022-10-08T10:34:48.135Z,68.80
2022-10-08T10:35:48.126Z,68.91
2022-10-08T10:36:48.147Z,68.71
2022-10-08T10:37:48.134Z,68.80
2022-10-08T10:38:48.094Z,68.47
2022-10-08T10:39:48.097Z,68.37
2022-10-08T10:40:48.072Z,68.67
2022-10-08T10:41:48.055Z,68.40
2022-10-08T10:42:48.444Z,68.77
2022-10-08T10:43:48.053Z,68.80
2022-10-08T10:44:48.022Z,69.31
2022-10-08T10:45:48.069Z,69.21
2022-10-08T10:46:47.998Z,69.11
2022-10-08T10:47:47.985Z,69.01
2022-10-08T10:48:47.979Z,69.11
2022-10-08T10:49:47.995Z,68.91
2022-10-08T10:50:47.955Z,69.21
2022-10-08T10:51:47.944Z,69.21
2022-10-08T10:52:48.284Z,69.01
2022-10-08T10:53:47.929Z,69.42
2022-10-08T10:54:47.935Z,69.51
2022-10-08T10:55:52.542Z,69.31
2022-10-08T10:56:48.896Z,69.42
2022-10-08T10:57:47.895Z,69.42
2022-10-08T10:58:47.868Z,69.42
2022-10-08T10:59:47.877Z,69.45
2022-10-08T11:00:47.858Z,69.75
2022-10-08T11:01:47.936Z,69.95
2022-10-08T11:02:48.272Z,69.85
2022-10-08T11:03:47.814Z,70.05
2022-10-08T11:04:47.809Z,70.36
2022-10-08T11:05:47.803Z,70.15
2022-10-08T11:06:47.779Z,70.25
2022-10-08T11:07:47.771Z,69.89
2022-10-08T11:08:47.838Z,70.18
2022-10-08T11:09:47.778Z,71.50
2022-10-08T11:10:47.735Z,71.09
2022-10-08T11:11:47.733Z,71.09
2022-10-08T11:12:48.044Z,71.09
2022-10-08T11:13:47.708Z,70.93
2022-10-08T11:14:47.700Z,71.64
2022-10-08T11:15:47.746Z,71.73
2022-10-08T11:16:47.670Z,71.73
2022-10-08T11:17:47.673Z,71.97
2022-10-08T11:18:47.641Z,71.67
2022-10-08T11:19:47.643Z,71.84
2022-10-08T11:20:47.643Z,72.17
2022-10-08T11:21:47.618Z,72.99
2022-10-08T11:22:47.833Z,72.48
2022-10-08T11:23:47.601Z,72.17
2022-10-08T11:24:47.602Z,73.19
2022-10-08T11:26:14.026Z,73.25
2022-10-08T11:26:48.556Z,72.28
2022-10-08T11:27:47.556Z,73.09
2022-10-08T11:28:47.607Z,73.19
2022-10-08T11:29:47.522Z,73.69
2022-10-08T11:30:47.545Z,73.69
2022-10-08T11:31:47.526Z,74.10
2022-10-08T11:32:47.695Z,75.11
2022-10-08T11:33:47.488Z,76.46
2022-10-08T11:34:47.472Z,76.77
2022-10-08T11:35:47.459Z,77.28
2022-10-08T11:36:47.443Z,77.34
2022-10-08T11:37:47.459Z,78.25
2022-10-08T11:38:47.435Z,80.31
2022-10-08T11:39:47.423Z,79.80
2022-10-08T11:40:47.495Z,80.72
2022-10-08T11:41:47.395Z,81.23
2022-10-08T11:42:48.639Z,82.24
2022-10-08T11:43:47.411Z,82.48
2022-10-08T11:44:47.372Z,83.49
2022-10-08T11:45:47.348Z,83.29
2022-10-08T11:46:47.350Z,83.29
2022-10-08T11:47:47.348Z,84.24
2022-10-08T11:48:47.350Z,84.14
2022-10-08T11:49:47.308Z,84.64
2022-10-08T11:50:47.291Z,84.85
2022-10-08T11:51:47.287Z,84.85
2022-10-08T11:52:47.502Z,84.95
2022-10-08T11:53:47.285Z,84.70
2022-10-08T11:54:50.505Z,85.01
2022-10-08T11:55:48.239Z,85.01
2022-10-08T11:56:47.257Z,85.11
2022-10-08T11:58:07.284Z,84.70
2022-10-08T11:58:48.264Z,84.67
2022-10-08T11:59:47.215Z,84.20
2022-10-08T12:00:47.194Z,83.35
2022-10-08T12:01:47.182Z,83.39
2022-10-08T12:02:47.691Z,83.39
2022-10-08T12:03:47.214Z,83.39
2022-10-08T12:04:47.178Z,83.29
2022-10-08T12:05:50.331Z,83.39
2022-10-08T12:06:47.145Z,83.80
2022-10-08T12:07:47.122Z,83.59
2022-10-08T12:08:47.101Z,83.80
2022-10-08T12:09:47.121Z,83.49
2022-10-08T12:10:47.086Z,83.55
2022-10-08T12:11:47.064Z,82.54
2022-10-08T12:12:47.521Z,82.34
2022-10-08T12:13:47.061Z,82.95
2022-10-08T12:14:47.039Z,83.25
2022-10-08T12:15:47.106Z,82.14
2022-10-08T12:16:47.016Z,83.04
2022-10-08T12:17:47.001Z,82.75
2022-10-08T12:18:46.993Z,81.93
2022-10-08T12:19:46.987Z,82.10
2022-10-08T12:20:46.981Z,82.10
2022-10-08T12:21:46.969Z,81.29
2022-10-08T12:22:47.311Z,81.39
2022-10-08T12:23:46.956Z,80.88
2022-10-08T12:24:50.354Z,81.29
2022-10-08T12:25:46.920Z,81.25
2022-10-08T12:26:46.912Z,80.54
2022-10-08T12:27:46.902Z,79.73
2022-10-08T12:28:47.042Z,81.25
2022-10-08T12:29:46.888Z,80.91
2022-10-08T12:30:46.910Z,80.91
2022-10-08T12:31:49.703Z,79.79
2022-10-08T12:32:47.232Z,79.79
2022-10-08T12:33:46.872Z,79.29
2022-10-08T12:34:46.844Z,79.59
2022-10-08T12:35:46.843Z,78.99
2022-10-08T12:36:46.854Z,79.19
2022-10-08T12:37:47.122Z,79.39
2022-10-08T12:38:46.777Z,79.19
2022-10-08T12:39:46.782Z,78.86
2022-10-08T12:40:46.823Z,79.36
2022-10-08T12:41:46.784Z,79.87
2022-10-08T12:42:46.806Z,79.57
2022-10-08T12:43:46.789Z,79.91
2022-10-08T12:44:46.765Z,80.11
2022-10-08T12:45:46.737Z,80.11
2022-10-08T12:46:50.306Z,79.57
2022-10-08T12:47:46.987Z,79.87
2022-10-08T12:48:46.710Z,79.67
2022-10-08T12:49:46.674Z,79.67
2022-10-08T12:50:46.680Z,80.07
2022-10-08T12:51:46.718Z,79.16
2022-10-08T12:52:46.635Z,78.66